Mount Zion, GA (30150)

1:36 PM EDT on April 18, 2015 (GMT -0400)
Cherry and W White St | | Change Station
CLOSE
Current Station
Personal Weather Station
Location: Carrollton, GA
Elevation: 1063 ft
Nearby Weather Stations

Elev 1063 ft 33.59 °N, 85.07 °W | Updated 6 minutes ago

Overcast
Overcast
65.5 °F
Feels Like 65.5 °F
N
0.0
Wind Variable Wind from NNW

Today
High -- | Low -- °F
--% Chance of Precip.
Yesterday
High -- | Low -- °F
Precip. -- in
7:06 AM 8:13 PM
Waning Crescent, 0% visible
Pressure 30.02 in
Visibility 10.0 miles
Clouds Mostly Cloudy 1400 ft
Overcast 1900 ft
Dew Point 65 °F
Humidity 97%
Rainfall 0.14 in
Snow Depth Not available.
UV 3 out of 12
Pollen 9.90 out of 12
Air Quality Not available.
Flu Activity Sporadic
METAR KPUJ 181715Z AUTO 15003KT 10SM BKN014 OVC019 21/21 A3002 RMK AO2

More Conditions Fewer Conditions

Pressure 30.02 in
Visibility 10.0 miles
Clouds Mostly Cloudy 1400 ft
Overcast 1900 ft
Dew Point 65 °F
Humidity 97%
Rainfall 0.14 in
Snow Depth Not available.
UV 3 out of 12
Pollen 9.90 out of 12
Air Quality Not available.
Flu Activity Sporadic
METAR KPUJ 181715Z AUTO 15003KT 10SM BKN014 OVC019 21/21 A3002 RMK AO2

More Conditions Fewer Conditions

10-Day Weather Forecast

Almanac

Astronomy

Apr. 18, 2015 Rise Set
Actual Time
Civil Twilight
Nautical Twilight
Astronomical Twilight
Moon
Length of Visible Light
Length of Day
Tomorrow will be .
, % of the Moon is Illuminated

Today's Extremes

State Highs State Lows

Community

WunderPhotos

Upload Photos

1,814,470 photos uploaded!

WunderBlogs® & News

Nearby

Air Quality

  Air Quality AQ Index Pollutant
Not available.

Snow Depth

Station Depth Elevation

Earthquake Activity

City Distance Mag. Time & Date
Minimum magnitude displayed is 2.5.

Coastal Water Temperatures

Place Temperature

Stations

Nearby Weather Stations

Station Location Temp. Windchill Dew Point Humidity Wind Precip. Elev Updated Type